createdAt,value
2023-05-27T00:02:03.388Z,101900.33
2023-05-27T00:04:34.195Z,101902.52
2023-05-27T00:07:05.172Z,101897.05
2023-05-27T00:09:35.916Z,101898.42
2023-05-27T00:12:07.283Z,101895.33
2023-05-27T00:14:38.035Z,101893.78
2023-05-27T00:17:08.779Z,101897.45
2023-05-27T00:19:39.540Z,101895.30
2023-05-27T00:22:10.265Z,101892.20
2023-05-27T00:24:40.968Z,101894.59
2023-05-27T00:27:12.728Z,101891.33
2023-05-27T00:29:43.466Z,101890.66
2023-05-27T00:32:14.532Z,101887.10
2023-05-27T00:34:43.676Z,101882.36
2023-05-27T00:37:14.440Z,101878.86
2023-05-27T00:39:45.203Z,101882.80
2023-05-27T00:42:16.536Z,101882.98
2023-05-27T00:44:47.346Z,101884.16
2023-05-27T00:47:18.533Z,101888.16
2023-05-27T00:49:49.241Z,101891.14
2023-05-27T00:52:19.910Z,101890.38
2023-05-27T00:54:51.456Z,101888.66
2023-05-27T00:57:22.645Z,101894.70
2023-05-27T00:59:54.037Z,101895.29
2023-05-27T01:02:24.854Z,101890.83
2023-05-27T01:04:55.748Z,101889.17
2023-05-27T01:07:33.987Z,101892.52
2023-05-27T01:10:11.972Z,101894.42
2023-05-27T01:12:50.115Z,101901.54
2023-05-27T01:15:21.901Z,101898.80
2023-05-27T01:17:57.162Z,101895.02
2023-05-27T01:20:29.505Z,101894.73
2023-05-27T01:23:00.819Z,101893.80
2023-05-27T01:25:33.356Z,101889.73
2023-05-27T01:28:04.043Z,101890.77
2023-05-27T01:30:34.897Z,101893.30
2023-05-27T01:33:09.447Z,101894.33
2023-05-27T01:35:45.516Z,101894.12
2023-05-27T01:38:19.282Z,101893.56
2023-05-27T01:40:51.853Z,101894.76
2023-05-27T01:43:23.184Z,101889.45
2023-05-27T01:45:54.324Z,101884.41
2023-05-27T01:48:25.240Z,101889.31
2023-05-27T01:50:56.015Z,101889.31
2023-05-27T01:53:26.728Z,101887.29
2023-05-27T01:55:57.493Z,101883.36
2023-05-27T01:58:28.235Z,101880.70
2023-05-27T02:00:58.998Z,101877.71
2023-05-27T02:03:30.118Z,101877.97
2023-05-27T02:06:00.875Z,101878.13
2023-05-27T02:08:31.548Z,101877.63
2023-05-27T02:11:02.254Z,101879.80
2023-05-27T02:13:32.940Z,101882.47
2023-05-27T02:16:03.706Z,101879.41
2023-05-27T02:18:34.805Z,101880.27
2023-05-27T02:21:04.076Z,101884.73
2023-05-27T02:23:34.856Z,101882.02
2023-05-27T02:26:05.645Z,101880.94
2023-05-27T02:28:36.384Z,101882.24
2023-05-27T02:31:07.251Z,101882.79
2023-05-27T02:33:38.026Z,101882.93
2023-05-27T02:36:09.530Z,101879.70
2023-05-27T02:38:40.202Z,101880.36
2023-05-27T02:41:10.974Z,101878.15
2023-05-27T02:43:41.739Z,101881.10
2023-05-27T02:46:12.536Z,101883.64
2023-05-27T02:48:43.255Z,101883.21
2023-05-27T02:51:14.296Z,101886.45
2023-05-27T02:53:43.494Z,101889.59
2023-05-27T02:56:14.210Z,101893.11
2023-05-27T02:58:44.857Z,101897.98
2023-05-27T03:01:15.578Z,101897.14
2023-05-27T03:03:46.313Z,101897.34
2023-05-27T03:06:17.206Z,101899.10
2023-05-27T03:08:47.897Z,101899.40
2023-05-27T03:11:18.800Z,101901.99
2023-05-27T03:13:49.535Z,101905.33
2023-05-27T03:16:20.302Z,101907.45
2023-05-27T03:18:50.985Z,101904.08
2023-05-27T03:21:21.861Z,101903.58
2023-05-27T03:23:52.574Z,101908.27
2023-05-27T03:26:23.309Z,101907.70
2023-05-27T03:28:53.958Z,101910.66
2023-05-27T03:31:24.794Z,101915.09
2023-05-27T03:33:55.517Z,101911.23
2023-05-27T03:36:26.379Z,101911.88
2023-05-27T03:38:58.236Z,101910.25
2023-05-27T03:41:29.020Z,101904.60
2023-05-27T03:43:59.753Z,101913.88
2023-05-27T03:46:30.536Z,101916.75
2023-05-27T03:49:01.353Z,101912.52
2023-05-27T03:51:32.096Z,101914.54
2023-05-27T03:54:02.868Z,101912.23
2023-05-27T03:56:33.695Z,101914.39
2023-05-27T03:59:04.826Z,101922.37
2023-05-27T04:01:35.602Z,101917.38
2023-05-27T04:04:06.330Z,101920.48
2023-05-27T04:06:37.162Z,101920.50
2023-05-27T04:09:07.946Z,101924.39
2023-05-27T04:11:38.668Z,101922.28
2023-05-27T04:14:09.415Z,101921.23
2023-05-27T04:16:38.627Z,101927.46
2023-05-27T04:19:09.514Z,101930.05
2023-05-27T04:21:40.273Z,101924.61
2023-05-27T04:24:11.044Z,101928.94
2023-05-27T04:26:41.822Z,101933.21
2023-05-27T04:29:12.477Z,101936.77
2023-05-27T04:31:43.254Z,101935.70
2023-05-27T04:34:13.992Z,101938.15
2023-05-27T04:36:45.392Z,101935.70
2023-05-27T04:39:16.132Z,101938.11
2023-05-27T04:41:46.913Z,101938.51
2023-05-27T04:44:17.703Z,101940.91
2023-05-27T04:46:48.720Z,101941.91
2023-05-27T04:49:19.634Z,101948.55
2023-05-27T04:51:50.468Z,101948.33
2023-05-27T04:54:21.225Z,101947.79
2023-05-27T04:56:52.030Z,101949.06
2023-05-27T04:59:22.768Z,101950.44
2023-05-27T05:01:53.999Z,101948.80
2023-05-27T05:04:24.797Z,101948.59
2023-05-27T05:06:55.498Z,101950.98
2023-05-27T05:09:26.205Z,101948.02
2023-05-27T05:11:56.874Z,101951.54
2023-05-27T05:14:27.564Z,101950.83
2023-05-27T05:16:58.403Z,101948.15
2023-05-27T05:19:29.097Z,101949.80
2023-05-27T05:21:59.822Z,101944.17
2023-05-27T05:24:30.606Z,101948.89
2023-05-27T05:27:01.647Z,101955.70
2023-05-27T05:29:32.359Z,101952.32
2023-05-27T05:32:03.186Z,101945.00
2023-05-27T05:34:34.125Z,101948.64
2023-05-27T05:37:05.128Z,101941.03
2023-05-27T05:39:35.841Z,101949.59
2023-05-27T05:42:07.108Z,101949.61
2023-05-27T05:44:37.950Z,101950.08
2023-05-27T05:47:08.793Z,101950.21
2023-05-27T05:49:39.453Z,101946.40
2023-05-27T05:52:10.262Z,101947.23
2023-05-27T05:54:41.072Z,101949.13
2023-05-27T05:57:12.019Z,101953.85
2023-05-27T05:59:42.779Z,101960.38
2023-05-27T06:02:13.891Z,101965.98
2023-05-27T06:04:45.251Z,101966.36
2023-05-27T06:07:16.127Z,101968.52
2023-05-27T06:09:47.174Z,101966.85
2023-05-27T06:12:18.109Z,101971.71
2023-05-27T06:14:48.800Z,101975.10
2023-05-27T06:17:17.943Z,101976.78
2023-05-27T06:19:48.779Z,101976.61
2023-05-27T06:22:17.922Z,101975.47
2023-05-27T06:24:48.623Z,101976.61
2023-05-27T06:27:19.370Z,101973.66
2023-05-27T06:29:48.607Z,101978.77
2023-05-27T06:32:19.298Z,101977.80
2023-05-27T06:34:50.741Z,101977.22
2023-05-27T06:37:21.550Z,101978.80
2023-05-27T06:39:52.298Z,101979.35
2023-05-27T06:42:21.375Z,101983.17
2023-05-27T06:44:52.058Z,101983.52
2023-05-27T06:47:22.769Z,101982.91
2023-05-27T06:49:53.560Z,101983.53
2023-05-27T06:52:22.694Z,101983.14
2023-05-27T06:54:53.706Z,101979.25
2023-05-27T06:57:24.347Z,101983.34
2023-05-27T06:59:53.649Z,101979.23
2023-05-27T07:02:24.338Z,101981.27
2023-05-27T07:04:55.320Z,101982.90
2023-05-27T07:07:27.432Z,101979.08
2023-05-27T07:09:58.173Z,101984.08
2023-05-27T07:12:27.313Z,101972.23
2023-05-27T07:14:58.189Z,101975.23
2023-05-27T07:17:28.913Z,101975.66
2023-05-27T07:19:59.627Z,101970.08
2023-05-27T07:22:30.344Z,101970.91
2023-05-27T07:25:04.009Z,101970.25
2023-05-27T07:27:34.742Z,101968.88
2023-05-27T07:30:08.240Z,101964.08
2023-05-27T07:32:38.999Z,101964.84
2023-05-27T07:35:09.936Z,101959.30
2023-05-27T07:37:39.047Z,101957.64
2023-05-27T07:40:12.145Z,101954.05
2023-05-27T07:42:42.866Z,101958.27
2023-05-27T07:45:13.945Z,101956.92
2023-05-27T07:47:44.716Z,101953.58
2023-05-27T07:50:13.775Z,101953.34
2023-05-27T07:52:44.643Z,101949.98
2023-05-27T07:55:15.477Z,101952.60
2023-05-27T07:57:46.198Z,101951.83
2023-05-27T08:00:15.757Z,101953.69
2023-05-27T08:02:46.585Z,101953.53
2023-05-27T08:05:17.389Z,101956.75
2023-05-27T08:07:46.523Z,101956.56
2023-05-27T08:10:17.337Z,101953.77
2023-05-27T08:12:48.057Z,101949.78
2023-05-27T08:15:18.915Z,101945.02
2023-05-27T08:17:49.650Z,101944.22
2023-05-27T08:20:21.965Z,101937.73
2023-05-27T08:22:52.710Z,101935.45
2023-05-27T08:25:23.589Z,101937.51
2023-05-27T08:27:55.930Z,101938.74
2023-05-27T08:30:26.632Z,101936.75
2023-05-27T08:32:57.426Z,101933.39
2023-05-27T08:35:28.449Z,101926.92
2023-05-27T08:37:59.290Z,101923.66
2023-05-27T08:40:30.041Z,101922.02
2023-05-27T08:43:00.997Z,101914.79
2023-05-27T08:45:31.722Z,101911.29
2023-05-27T08:48:00.832Z,101904.98
2023-05-27T08:50:31.712Z,101905.02
2023-05-27T08:53:04.169Z,101910.27
2023-05-27T08:55:43.971Z,101911.79
2023-05-27T08:58:15.635Z,101913.83
2023-05-27T09:00:49.245Z,101912.81
2023-05-27T09:03:19.993Z,101913.05
2023-05-27T09:05:50.928Z,101910.79
2023-05-27T09:08:23.604Z,101914.30
2023-05-27T09:10:57.557Z,101915.10
2023-05-27T09:13:32.144Z,101915.71
2023-05-27T09:16:04.560Z,101913.27
2023-05-27T09:18:36.829Z,101911.02
2023-05-27T09:21:07.682Z,101920.67
2023-05-27T09:23:40.984Z,101916.99
2023-05-27T09:26:12.878Z,101912.48
2023-05-27T09:28:43.661Z,101914.82
2023-05-27T09:31:14.431Z,101916.63
2023-05-27T09:33:45.162Z,101921.63
2023-05-27T09:36:14.372Z,101915.89
2023-05-27T09:38:46.054Z,101908.07
2023-05-27T09:41:24.097Z,101910.78
2023-05-27T09:43:57.776Z,101910.36
2023-05-27T09:46:29.164Z,101907.48
2023-05-27T09:49:00.984Z,101908.67
2023-05-27T09:51:32.476Z,101902.42
2023-05-27T09:54:04.665Z,101902.86
2023-05-27T09:56:36.315Z,101901.61
2023-05-27T09:59:07.024Z,101897.74
2023-05-27T10:01:39.563Z,101892.90
2023-05-27T10:04:10.760Z,101897.08
2023-05-27T10:06:41.833Z,101894.27
2023-05-27T10:09:12.523Z,101897.39
2023-05-27T10:11:42.415Z,101900.23
2023-05-27T10:14:13.547Z,101893.21
2023-05-27T10:16:53.975Z,101898.08
2023-05-27T10:19:25.131Z,101896.52
2023-05-27T10:21:56.270Z,101889.89
2023-05-27T10:24:48.737Z,101891.30
2023-05-27T10:27:19.823Z,101889.27
2023-05-27T10:29:59.595Z,101890.27
2023-05-27T10:32:31.010Z,101883.49
2023-05-27T10:35:02.108Z,101881.75
2023-05-27T10:37:36.957Z,101881.63
2023-05-27T10:40:10.937Z,101879.73
2023-05-27T10:42:42.850Z,101880.39
2023-05-27T10:45:13.642Z,101877.30
2023-05-27T10:47:47.197Z,101877.14
2023-05-27T10:50:18.107Z,101877.41
2023-05-27T10:52:51.100Z,101876.05
2023-05-27T10:55:22.982Z,101876.20
2023-05-27T10:57:53.987Z,101878.11
2023-05-27T11:00:27.295Z,101873.94
2023-05-27T11:02:58.348Z,101867.69
2023-05-27T11:05:31.534Z,101862.40
2023-05-27T11:08:03.004Z,101856.30
2023-05-27T11:10:33.841Z,101858.23
2023-05-27T11:13:04.596Z,101854.48
2023-05-27T11:15:35.255Z,101854.58
2023-05-27T11:18:04.931Z,101858.06
2023-05-27T11:20:39.353Z,101855.05
2023-05-27T11:23:10.119Z,101857.79
2023-05-27T11:25:45.553Z,101849.95
2023-05-27T11:28:19.390Z,101848.25
2023-05-27T11:30:53.494Z,101848.96
2023-05-27T11:33:37.416Z,101848.42
2023-05-27T11:36:12.298Z,101848.59
2023-05-27T11:38:56.089Z,101847.27
2023-05-27T11:41:28.551Z,101851.01
2023-05-27T11:44:00.698Z,101845.97
2023-05-27T11:46:38.268Z,101840.80
2023-05-27T11:49:11.101Z,101836.71
2023-05-27T11:51:43.543Z,101830.31
2023-05-27T11:54:20.664Z,101823.72
2023-05-27T11:56:52.029Z,101822.96
2023-05-27T11:59:24.936Z,101820.45
2023-05-27T12:01:55.726Z,101819.63
2023-05-27T12:04:26.568Z,101816.42
2023-05-27T12:06:57.846Z,101815.31
2023-05-27T12:09:30.099Z,101809.10
2023-05-27T12:12:00.788Z,101812.20
2023-05-27T12:14:31.654Z,101811.68
2023-05-27T12:17:02.388Z,101807.48
2023-05-27T12:19:33.193Z,101800.22
2023-05-27T12:22:04.084Z,101793.95
2023-05-27T12:24:34.769Z,101795.51
2023-05-27T12:27:05.934Z,101788.07
2023-05-27T12:29:36.783Z,101787.86
2023-05-27T12:32:07.611Z,101791.17
2023-05-27T12:34:38.378Z,101795.30
2023-05-27T12:37:10.910Z,101782.54
2023-05-27T12:39:43.388Z,101777.42
2023-05-27T12:42:14.153Z,101779.16
2023-05-27T12:44:44.958Z,101773.10
2023-05-27T12:47:15.700Z,101771.05
2023-05-27T12:49:46.795Z,101760.17
2023-05-27T12:52:17.605Z,101762.34
2023-05-27T12:54:48.353Z,101764.22
2023-05-27T12:57:19.021Z,101759.52
2023-05-27T12:59:49.748Z,101760.58
2023-05-27T13:02:20.472Z,101764.53
2023-05-27T13:04:51.604Z,101759.20
2023-05-27T13:07:24.674Z,101759.52
2023-05-27T13:09:55.416Z,101758.02
2023-05-27T13:12:26.115Z,101754.64
2023-05-27T13:14:58.544Z,101751.20
2023-05-27T13:17:29.621Z,101747.36
2023-05-27T13:20:00.766Z,101745.36
2023-05-27T13:22:31.732Z,101742.67
2023-05-27T13:25:02.583Z,101733.07
2023-05-27T13:27:33.628Z,101734.29
2023-05-27T13:30:04.634Z,101729.20
2023-05-27T13:32:35.347Z,101727.93
2023-05-27T13:35:07.179Z,101723.45
2023-05-27T13:37:37.852Z,101715.22
2023-05-27T13:40:10.194Z,101715.04
2023-05-27T13:42:41.778Z,101712.05
2023-05-27T13:45:12.981Z,101708.42
2023-05-27T13:47:44.305Z,101706.05
2023-05-27T13:50:15.118Z,101704.21
2023-05-27T13:52:45.957Z,101704.21
2023-05-27T13:55:22.811Z,101701.22
2023-05-27T13:57:53.645Z,101698.00
2023-05-27T14:00:24.626Z,101692.31
2023-05-27T14:02:55.790Z,101695.24
2023-05-27T14:05:26.995Z,101703.86
2023-05-27T14:07:57.665Z,101700.34
2023-05-27T14:10:28.321Z,101698.40
2023-05-27T14:12:59.098Z,101693.23
2023-05-27T14:15:30.196Z,101688.89
2023-05-27T14:18:00.950Z,101682.45
2023-05-27T14:20:31.978Z,101683.33
2023-05-27T14:23:02.737Z,101677.73
2023-05-27T14:25:33.485Z,101683.64
2023-05-27T14:28:04.279Z,101677.35
2023-05-27T14:30:35.083Z,101677.89
2023-05-27T14:33:06.294Z,101676.88
2023-05-27T14:35:37.627Z,101677.43
2023-05-27T14:38:09.058Z,101669.33
2023-05-27T14:40:40.161Z,101668.85
2023-05-27T14:43:10.866Z,101660.92
2023-05-27T14:45:43.059Z,101658.05
2023-05-27T14:48:13.735Z,101656.08
2023-05-27T14:50:44.850Z,101654.80
2023-05-27T14:53:15.631Z,101650.13
2023-05-27T14:55:46.541Z,101650.23
2023-05-27T14:58:17.651Z,101645.35
2023-05-27T15:00:48.671Z,101649.73
2023-05-27T15:03:19.628Z,101641.45
2023-05-27T15:05:50.686Z,101641.73
2023-05-27T15:08:21.587Z,101642.86
2023-05-27T15:10:52.789Z,101642.77
2023-05-27T15:13:23.530Z,101641.86
2023-05-27T15:15:54.574Z,101641.02
2023-05-27T15:18:25.487Z,101642.93
2023-05-27T15:20:56.341Z,101637.14
2023-05-27T15:23:27.010Z,101638.59
2023-05-27T15:25:56.122Z,101636.86
2023-05-27T15:28:26.854Z,101630.71
2023-05-27T15:30:57.581Z,101634.44
2023-05-27T15:33:28.285Z,101633.81
2023-05-27T15:35:59.260Z,101625.55
2023-05-27T15:38:30.052Z,101624.44
2023-05-27T15:41:01.357Z,101624.50
2023-05-27T15:43:32.168Z,101618.64
2023-05-27T15:46:04.949Z,101614.44
2023-05-27T15:48:36.137Z,101611.58
2023-05-27T15:51:05.274Z,101607.35
2023-05-27T15:53:36.048Z,101609.14
2023-05-27T15:56:07.084Z,101600.40
2023-05-27T15:58:38.303Z,101602.44
2023-05-27T16:01:09.417Z,101601.18
2023-05-27T16:03:40.154Z,101593.98
2023-05-27T16:06:12.431Z,101594.41
2023-05-27T16:08:43.314Z,101597.42
2023-05-27T16:11:12.991Z,101596.67
2023-05-27T16:13:43.839Z,101593.14
2023-05-27T16:16:13.384Z,101592.09
2023-05-27T16:18:44.105Z,101589.25
2023-05-27T16:21:14.942Z,101585.77
2023-05-27T16:23:50.387Z,101580.60
2023-05-27T16:26:27.001Z,101584.11
2023-05-27T16:28:57.684Z,101577.20
2023-05-27T16:31:26.984Z,101577.67
2023-05-27T16:33:57.752Z,101570.86
2023-05-27T16:36:29.229Z,101572.02
2023-05-27T16:38:59.998Z,101569.95
2023-05-27T16:41:30.832Z,101573.00
2023-05-27T16:44:01.618Z,101570.56
2023-05-27T16:46:32.516Z,101565.73
2023-05-27T16:49:03.467Z,101569.20
2023-05-27T16:51:34.248Z,101564.67
2023-05-27T16:54:05.317Z,101559.34
2023-05-27T16:56:36.069Z,101554.13
2023-05-27T16:59:07.279Z,101556.52
2023-05-27T17:01:38.328Z,101552.31
2023-05-27T17:04:09.414Z,101551.54
2023-05-27T17:06:40.329Z,101545.10
2023-05-27T17:09:11.007Z,101544.14
2023-05-27T17:11:40.213Z,101543.27
2023-05-27T17:14:10.983Z,101542.83
2023-05-27T17:16:41.807Z,101544.05
2023-05-27T17:19:12.880Z,101543.71
2023-05-27T17:21:43.642Z,101541.05
2023-05-27T17:24:14.566Z,101541.02
2023-05-27T17:26:45.548Z,101542.15
2023-05-27T17:29:16.509Z,101542.04
2023-05-27T17:31:47.720Z,101534.98
2023-05-27T17:34:18.810Z,101532.32
2023-05-27T17:36:50.731Z,101532.92
2023-05-27T17:39:22.489Z,101534.39
2023-05-27T17:41:54.168Z,101534.41
2023-05-27T17:44:25.278Z,101536.35
2023-05-27T17:46:57.058Z,101532.21
2023-05-27T17:49:28.027Z,101529.75
2023-05-27T17:52:02.234Z,101528.64
2023-05-27T17:54:36.338Z,101531.59
2023-05-27T17:57:07.540Z,101530.55
2023-05-27T17:59:38.336Z,101528.63
2023-05-27T18:02:09.164Z,101527.34
2023-05-27T18:04:40.722Z,101524.13
2023-05-27T18:07:12.371Z,101526.14
2023-05-27T18:09:43.183Z,101526.87
2023-05-27T18:12:14.258Z,101528.37
2023-05-27T18:14:45.344Z,101522.71
2023-05-27T18:17:16.782Z,101522.58
2023-05-27T18:19:45.919Z,101521.04
2023-05-27T18:22:16.783Z,101520.69
2023-05-27T18:24:45.931Z,101519.95
2023-05-27T18:27:17.795Z,101521.35
2023-05-27T18:29:49.255Z,101521.45
2023-05-27T18:32:21.945Z,101520.53
2023-05-27T18:34:52.942Z,101517.79
2023-05-27T18:37:23.994Z,101519.58
2023-05-27T18:39:55.000Z,101520.63
2023-05-27T18:42:26.160Z,101521.84
2023-05-27T18:44:57.180Z,101521.28
2023-05-27T18:47:28.022Z,101519.16
2023-05-27T18:50:00.123Z,101516.77
2023-05-27T18:52:31.210Z,101518.19
2023-05-27T18:55:02.464Z,101521.98
2023-05-27T18:57:34.353Z,101519.34
2023-05-27T19:00:08.078Z,101520.27
2023-05-27T19:02:39.920Z,101524.50
2023-05-27T19:05:13.223Z,101525.81
2023-05-27T19:07:44.285Z,101531.48
2023-05-27T19:10:15.303Z,101529.79
2023-05-27T19:12:46.365Z,101530.88
2023-05-27T19:15:17.520Z,101533.91
2023-05-27T19:17:49.299Z,101535.83
2023-05-27T19:20:20.885Z,101535.48
2023-05-27T19:22:51.989Z,101538.36
2023-05-27T19:25:23.667Z,101537.24
2023-05-27T19:27:55.476Z,101537.23
2023-05-27T19:30:29.408Z,101534.33
2023-05-27T19:33:00.586Z,101532.47
2023-05-27T19:35:30.200Z,101537.21
2023-05-27T19:38:01.585Z,101536.30
2023-05-27T19:40:35.067Z,101535.23
2023-05-27T19:43:05.785Z,101537.17
2023-05-27T19:45:36.817Z,101538.21
2023-05-27T19:48:07.785Z,101535.46
2023-05-27T19:50:42.251Z,101531.79
2023-05-27T19:53:13.501Z,101531.37
2023-05-27T19:55:45.743Z,101532.17
2023-05-27T19:58:17.500Z,101534.23
2023-05-27T20:00:49.547Z,101533.21
2023-05-27T20:03:21.419Z,101535.09
2023-05-27T20:05:52.560Z,101535.45
2023-05-27T20:08:23.793Z,101537.82
2023-05-27T20:10:54.936Z,101536.38
2023-05-27T20:13:26.080Z,101532.72
2023-05-27T20:15:58.360Z,101530.13
2023-05-27T20:18:30.117Z,101532.45
2023-05-27T20:21:01.304Z,101531.40
2023-05-27T20:23:32.079Z,101532.36
2023-05-27T20:26:01.396Z,101533.98
2023-05-27T20:28:32.824Z,101529.90
2023-05-27T20:31:03.684Z,101532.00
2023-05-27T20:33:34.597Z,101531.83
2023-05-27T20:36:03.988Z,101532.27
2023-05-27T20:38:34.726Z,101532.68
2023-05-27T20:41:05.943Z,101532.27
2023-05-27T20:43:37.854Z,101536.41
2023-05-27T20:46:08.703Z,101534.89
2023-05-27T20:48:37.884Z,101534.73
2023-05-27T20:51:08.799Z,101535.02
2023-05-27T20:53:37.968Z,101531.56
2023-05-27T20:56:08.881Z,101533.86
2023-05-27T20:58:38.084Z,101531.30
2023-05-27T21:01:09.840Z,101533.64
2023-05-27T21:03:40.654Z,101532.26
2023-05-27T21:06:11.417Z,101534.17
2023-05-27T21:08:42.237Z,101535.13
2023-05-27T21:11:13.243Z,101534.88
2023-05-27T21:13:46.237Z,101535.88
2023-05-27T21:16:19.155Z,101537.22
2023-05-27T21:18:50.095Z,101537.08
2023-05-27T21:21:21.192Z,101535.82
2023-05-27T21:23:53.438Z,101532.83
2023-05-27T21:26:24.169Z,101530.78
2023-05-27T21:28:55.279Z,101529.09
2023-05-27T21:31:24.565Z,101526.84
2023-05-27T21:33:55.313Z,101526.64
2023-05-27T21:36:26.057Z,101523.99
2023-05-27T21:38:56.889Z,101520.95
2023-05-27T21:41:27.700Z,101521.45
2023-05-27T21:44:25.623Z,101519.93
2023-05-27T21:46:56.360Z,101520.27
2023-05-27T21:49:28.628Z,101520.05
2023-05-27T21:52:00.280Z,101524.11
2023-05-27T21:54:31.100Z,101520.46
2023-05-27T21:57:02.029Z,101520.21
2023-05-27T21:59:33.027Z,101517.59
2023-05-27T22:02:04.668Z,101514.50
2023-05-27T22:04:35.612Z,101510.02
2023-05-27T22:07:06.955Z,101509.45
2023-05-27T22:09:40.298Z,101506.48
2023-05-27T22:12:11.253Z,101500.84
2023-05-27T22:14:41.973Z,101500.44
2023-05-27T22:17:12.680Z,101504.26
2023-05-27T22:19:43.455Z,101499.27
2023-05-27T22:22:14.192Z,101498.30
2023-05-27T22:24:44.999Z,101496.58
2023-05-27T22:27:14.375Z,101495.14
2023-05-27T22:29:45.197Z,101495.98
2023-05-27T22:32:16.007Z,101493.40
2023-05-27T22:34:45.257Z,101496.92
2023-05-27T22:37:15.931Z,101494.75
2023-05-27T22:39:46.670Z,101493.17
2023-05-27T22:42:17.468Z,101491.38
2023-05-27T22:44:48.395Z,101492.15
2023-05-27T22:47:19.155Z,101490.30
2023-05-27T22:49:49.851Z,101492.02
2023-05-27T22:52:21.779Z,101487.61
2023-05-27T22:54:52.648Z,101486.67
2023-05-27T22:57:23.353Z,101482.77
2023-05-27T22:59:54.084Z,101479.96
2023-05-27T23:02:24.893Z,101479.48
2023-05-27T23:04:54.238Z,101481.42
2023-05-27T23:07:24.975Z,101478.02
2023-05-27T23:09:55.773Z,101475.98
2023-05-27T23:12:26.501Z,101474.83
2023-05-27T23:14:57.301Z,101469.39
2023-05-27T23:17:28.020Z,101466.70
2023-05-27T23:19:58.763Z,101467.33
2023-05-27T23:22:29.461Z,101468.23
2023-05-27T23:25:00.206Z,101467.21
2023-05-27T23:27:30.851Z,101466.15
2023-05-27T23:30:01.587Z,101463.98
2023-05-27T23:32:32.858Z,101470.63
2023-05-27T23:35:03.823Z,101471.89
2023-05-27T23:37:34.472Z,101473.58
2023-05-27T23:40:05.914Z,101471.84
2023-05-27T23:42:36.562Z,101466.75
2023-05-27T23:45:09.181Z,101464.92
2023-05-27T23:47:39.923Z,101461.84
2023-05-27T23:50:11.326Z,101457.02
2023-05-27T23:52:42.010Z,101453.98
2023-05-27T23:55:19.602Z,101450.52
2023-05-27T23:57:50.336Z,101446.92
